createdAt,value
2018-07-31T00:01:45.679Z,22.80
2018-07-31T00:04:16.008Z,22.70
2018-07-31T00:06:45.124Z,22.60
2018-07-31T00:09:14.288Z,22.50
2018-07-31T00:11:44.135Z,22.50
2018-07-31T00:14:13.644Z,22.50
2018-07-31T00:16:43.559Z,22.40
2018-07-31T00:19:13.896Z,22.40
2018-07-31T00:21:43.409Z,22.30
2018-07-31T00:24:13.600Z,22.30
2018-07-31T00:26:43.589Z,22.20
2018-07-31T00:29:13.893Z,22.20
2018-07-31T00:31:44.077Z,22.20
2018-07-31T00:36:45.006Z,22.10
2018-07-31T00:39:14.577Z,22.00
2018-07-31T00:41:44.663Z,22.00
2018-07-31T00:44:14.788Z,22.00
2018-07-31T00:46:44.540Z,21.90
2018-07-31T00:49:14.806Z,21.90
2018-07-31T00:51:44.700Z,21.90
2018-07-31T00:54:14.717Z,21.90
2018-07-31T00:56:45.109Z,21.80
2018-07-31T01:01:44.724Z,21.80
2018-07-31T01:04:15.240Z,21.70
2018-07-31T01:06:45.263Z,21.70
2018-07-31T01:09:15.595Z,21.70
2018-07-31T01:11:45.146Z,21.70
2018-07-31T01:14:16.073Z,21.70
2018-07-31T01:16:45.207Z,21.70
2018-07-31T01:21:44.667Z,21.60
2018-07-31T01:24:14.899Z,21.50
2018-07-31T01:26:44.463Z,21.60
2018-07-31T01:29:14.091Z,21.50
2018-07-31T01:31:44.032Z,21.50
2018-07-31T01:34:13.175Z,21.50
2018-07-31T01:36:42.754Z,21.40
2018-07-31T01:39:13.576Z,21.40
2018-07-31T01:41:43.879Z,21.40
2018-07-31T01:44:14.175Z,21.40
2018-07-31T01:49:13.522Z,21.50
2018-07-31T01:51:43.082Z,21.50
2018-07-31T01:54:12.777Z,21.50
2018-07-31T01:56:42.814Z,21.50
2018-07-31T01:59:12.555Z,21.50
2018-07-31T02:01:42.910Z,21.50
2018-07-31T02:04:13.036Z,21.60
2018-07-31T02:06:43.011Z,21.50
2018-07-31T02:09:13.229Z,21.50
2018-07-31T02:11:43.247Z,21.60
2018-07-31T02:14:13.215Z,21.60
2018-07-31T02:16:43.201Z,21.60
2018-07-31T02:19:13.541Z,21.60
2018-07-31T02:21:43.592Z,21.60
2018-07-31T02:24:13.581Z,21.60
2018-07-31T02:26:43.302Z,21.60
2018-07-31T02:29:12.930Z,21.60
2018-07-31T02:31:43.059Z,21.60
2018-07-31T02:34:13.069Z,21.60
2018-07-31T02:36:43.298Z,21.60
2018-07-31T02:39:13.674Z,21.60
2018-07-31T02:41:43.821Z,21.60
2018-07-31T02:44:14.036Z,21.60
2018-07-31T02:46:44.151Z,21.70
2018-07-31T02:49:14.381Z,21.70
2018-07-31T02:51:43.879Z,21.70
2018-07-31T02:54:13.443Z,21.70
2018-07-31T02:56:43.054Z,21.70
2018-07-31T02:59:12.616Z,21.80
2018-07-31T03:01:42.923Z,21.80
2018-07-31T03:04:13.400Z,21.80
2018-07-31T03:06:43.175Z,21.90
2018-07-31T03:09:13.221Z,21.90
2018-07-31T03:11:43.264Z,21.90
2018-07-31T03:14:13.580Z,21.90
2018-07-31T03:16:43.914Z,22.00
2018-07-31T03:19:14.067Z,22.00
2018-07-31T03:21:43.636Z,22.00
2018-07-31T03:24:13.941Z,22.00
2018-07-31T03:26:44.031Z,22.10
2018-07-31T03:29:14.229Z,22.10
2018-07-31T03:31:43.997Z,22.20
2018-07-31T03:34:13.803Z,22.30
2018-07-31T03:36:43.774Z,22.30
2018-07-31T03:39:14.827Z,22.40
2018-07-31T03:41:44.923Z,22.40
2018-07-31T03:44:15.029Z,22.50
2018-07-31T03:46:44.850Z,22.60
2018-07-31T03:49:15.056Z,22.50
2018-07-31T03:51:44.875Z,22.50
2018-07-31T03:54:15.303Z,22.50
2018-07-31T03:56:45.604Z,22.50
2018-07-31T03:59:15.036Z,22.50
2018-07-31T04:01:44.606Z,22.50
2018-07-31T04:04:14.076Z,22.50
2018-07-31T04:06:43.867Z,22.50
2018-07-31T04:09:14.537Z,22.50
2018-07-31T04:11:44.027Z,22.60
2018-07-31T04:14:13.815Z,22.60
2018-07-31T04:16:44.116Z,22.70
2018-07-31T04:19:14.316Z,22.80
2018-07-31T04:21:45.244Z,22.80
2018-07-31T04:24:17.391Z,22.90
2018-07-31T04:26:47.327Z,22.90
2018-07-31T04:29:16.991Z,23.00
2018-07-31T04:31:46.946Z,22.90
2018-07-31T04:34:17.151Z,23.00
2018-07-31T04:36:47.426Z,23.10
2018-07-31T04:41:46.671Z,23.10
2018-07-31T04:44:15.704Z,23.00
2018-07-31T04:46:45.452Z,23.00
2018-07-31T04:49:15.549Z,23.00
2018-07-31T04:51:45.564Z,23.00
2018-07-31T04:54:15.539Z,23.10
2018-07-31T04:56:45.311Z,23.10
2018-07-31T04:59:15.531Z,23.20
2018-07-31T05:01:44.767Z,23.30
2018-07-31T05:04:14.734Z,23.30
2018-07-31T05:06:44.940Z,23.40
2018-07-31T05:09:15.028Z,23.50
2018-07-31T05:11:45.129Z,23.60
2018-07-31T05:14:15.779Z,23.70
2018-07-31T05:16:45.804Z,23.80
2018-07-31T05:19:15.855Z,23.80
2018-07-31T05:21:45.726Z,23.90
2018-07-31T05:24:16.843Z,24.00
2018-07-31T05:26:46.723Z,24.00
2018-07-31T05:29:15.656Z,24.00
2018-07-31T05:31:45.561Z,24.00
2018-07-31T05:34:15.787Z,24.10
2018-07-31T05:36:45.855Z,24.00
2018-07-31T05:39:15.898Z,24.00
2018-07-31T05:41:46.248Z,24.00
2018-07-31T05:44:16.756Z,24.00
2018-07-31T05:46:45.970Z,24.00
2018-07-31T05:49:15.884Z,24.00
2018-07-31T05:51:45.263Z,24.00
2018-07-31T05:54:15.553Z,24.00
2018-07-31T05:56:45.240Z,24.00
2018-07-31T05:59:14.707Z,24.10
2018-07-31T06:01:44.779Z,24.20
2018-07-31T06:04:14.471Z,24.20
2018-07-31T06:06:44.671Z,24.30
2018-07-31T06:09:15.083Z,24.40
2018-07-31T06:11:45.172Z,24.40
2018-07-31T06:14:14.791Z,24.50
2018-07-31T06:16:43.927Z,24.50
2018-07-31T06:19:13.782Z,24.60
2018-07-31T06:21:43.968Z,24.80
2018-07-31T06:24:13.671Z,24.90
2018-07-31T06:26:43.854Z,25.00
2018-07-31T06:29:13.216Z,25.10
2018-07-31T06:31:55.217Z,25.20
2018-07-31T06:34:28.128Z,25.40
2018-07-31T06:37:00.951Z,25.50
2018-07-31T06:39:31.297Z,25.70
2018-07-31T06:42:00.711Z,25.70
2018-07-31T06:44:30.753Z,25.80
2018-07-31T06:47:00.851Z,25.80
2018-07-31T06:49:30.775Z,25.80
2018-07-31T06:52:00.032Z,25.60
2018-07-31T06:54:30.311Z,25.60
2018-07-31T06:57:00.572Z,25.60
2018-07-31T06:59:30.312Z,25.50
2018-07-31T07:02:01.147Z,25.50
2018-07-31T07:04:31.554Z,25.40
2018-07-31T07:07:01.952Z,25.40
2018-07-31T07:09:31.615Z,25.60
2018-07-31T07:12:01.884Z,25.60
2018-07-31T07:14:32.231Z,25.60
2018-07-31T07:17:02.010Z,25.70
2018-07-31T07:19:32.003Z,25.90
2018-07-31T07:22:01.604Z,25.90
2018-07-31T07:24:31.165Z,26.10
2018-07-31T07:27:01.048Z,26.10
2018-07-31T07:29:31.015Z,26.10
2018-07-31T07:32:00.940Z,26.20
2018-07-31T07:34:30.940Z,26.10
2018-07-31T07:37:01.264Z,26.10
2018-07-31T07:39:30.659Z,26.10
2018-07-31T07:42:00.244Z,26.10
2018-07-31T07:44:31.550Z,26.20
2018-07-31T07:47:01.823Z,26.30
2018-07-31T07:49:31.407Z,26.40
2018-07-31T07:52:01.721Z,26.60
2018-07-31T07:54:31.624Z,26.70
2018-07-31T07:57:01.935Z,26.70
2018-07-31T07:59:32.575Z,26.80
2018-07-31T08:02:02.955Z,26.80
2018-07-31T08:04:32.950Z,26.80
2018-07-31T08:07:03.147Z,26.80
2018-07-31T08:09:32.338Z,26.90
2018-07-31T08:12:02.481Z,26.90
2018-07-31T08:14:31.788Z,26.90
2018-07-31T08:17:01.945Z,27.00
2018-07-31T08:22:01.721Z,27.10
2018-07-31T08:24:31.949Z,27.20
2018-07-31T08:27:01.907Z,27.20
2018-07-31T08:29:31.383Z,27.40
2018-07-31T08:32:02.687Z,27.60
2018-07-31T08:34:31.965Z,27.70
2018-07-31T08:37:02.278Z,28.00
2018-07-31T08:39:36.451Z,28.10
2018-07-31T08:42:06.471Z,28.10
2018-07-31T08:44:36.391Z,28.10
2018-07-31T08:47:06.209Z,28.10
2018-07-31T08:49:36.615Z,28.10
2018-07-31T08:52:07.386Z,28.10
2018-07-31T08:54:37.655Z,28.10
2018-07-31T08:57:07.403Z,28.20
2018-07-31T08:59:40.590Z,28.50
2018-07-31T09:02:10.528Z,28.60
2018-07-31T09:04:40.616Z,28.60
2018-07-31T09:07:10.959Z,28.70
2018-07-31T09:09:40.495Z,28.60
2018-07-31T09:12:10.461Z,28.50
2018-07-31T09:17:09.448Z,28.40
2018-07-31T09:19:47.381Z,28.50
2018-07-31T09:22:17.500Z,28.70
2018-07-31T09:24:47.435Z,28.70
2018-07-31T09:27:16.788Z,28.80
2018-07-31T09:29:46.451Z,28.90
2018-07-31T09:32:19.120Z,28.90
2018-07-31T09:34:49.076Z,29.00
2018-07-31T09:37:18.379Z,29.30
2018-07-31T09:39:48.816Z,29.40
2018-07-31T09:42:19.015Z,29.40
2018-07-31T09:44:49.421Z,29.40
2018-07-31T09:47:18.343Z,29.40
2018-07-31T09:49:48.621Z,29.40
2018-07-31T09:52:18.967Z,29.50
2018-07-31T09:57:18.445Z,29.50
2018-07-31T09:59:48.675Z,29.40
2018-07-31T10:02:18.607Z,29.20
2018-07-31T10:04:47.972Z,29.20
2018-07-31T10:07:17.336Z,29.10
2018-07-31T10:09:47.459Z,29.00
2018-07-31T10:12:16.512Z,29.10
2018-07-31T10:19:44.451Z,29.10
2018-07-31T10:24:42.977Z,29.00
2018-07-31T10:29:43.226Z,29.10
2018-07-31T10:32:13.391Z,29.00
2018-07-31T10:37:12.604Z,28.70
2018-07-31T10:39:42.596Z,28.70
2018-07-31T10:42:12.788Z,28.70
2018-07-31T10:44:42.676Z,28.80
2018-07-31T10:47:16.243Z,28.90
2018-07-31T10:49:46.523Z,29.00
2018-07-31T10:52:16.663Z,29.10
2018-07-31T10:54:46.706Z,29.20
2018-07-31T10:57:16.527Z,29.20
2018-07-31T10:59:45.763Z,29.20
2018-07-31T11:02:16.875Z,29.30
2018-07-31T11:04:46.330Z,29.40
2018-07-31T11:07:17.196Z,29.60
2018-07-31T11:09:51.997Z,29.70
2018-07-31T11:14:53.811Z,29.90
2018-07-31T11:17:25.266Z,29.80
2018-07-31T11:22:25.039Z,29.50
2018-07-31T11:24:55.455Z,29.40
2018-07-31T11:27:26.091Z,29.50
2018-07-31T11:29:56.154Z,29.60
2018-07-31T11:37:25.698Z,30.00
2018-07-31T11:39:56.319Z,30.00
2018-07-31T11:42:29.379Z,29.90
2018-07-31T11:44:59.855Z,29.70
2018-07-31T11:47:29.231Z,29.50
2018-07-31T11:50:07.183Z,29.40
2018-07-31T11:52:36.928Z,29.20
2018-07-31T11:55:06.706Z,29.20
2018-07-31T11:57:36.593Z,29.20
2018-07-31T12:02:37.251Z,29.40
2018-07-31T12:05:08.169Z,29.50
2018-07-31T12:07:38.317Z,29.70
2018-07-31T12:10:15.830Z,29.90
2018-07-31T12:12:45.603Z,30.30
2018-07-31T12:15:15.414Z,30.60
2018-07-31T12:17:45.336Z,30.80
2018-07-31T12:20:15.174Z,31.20
2018-07-31T12:22:44.476Z,31.30
2018-07-31T12:25:15.391Z,31.40
2018-07-31T12:27:45.745Z,31.40
2018-07-31T12:30:17.925Z,31.50
2018-07-31T12:32:50.194Z,31.60
2018-07-31T12:35:21.091Z,31.70
2018-07-31T12:37:53.614Z,31.80
2018-07-31T12:40:28.050Z,31.80
2018-07-31T12:42:59.220Z,31.80
2018-07-31T12:45:30.399Z,31.70
2018-07-31T12:48:00.161Z,31.80
2018-07-31T12:50:34.443Z,31.70
2018-07-31T12:53:04.155Z,31.60
2018-07-31T12:55:33.596Z,31.50
2018-07-31T12:58:03.990Z,31.40
2018-07-31T13:00:34.815Z,31.40
2018-07-31T13:05:34.794Z,31.20
2018-07-31T13:08:06.051Z,31.10
2018-07-31T13:10:41.076Z,31.10
2018-07-31T13:13:11.249Z,31.20
2018-07-31T13:18:11.720Z,31.40
2018-07-31T13:20:43.915Z,31.50
2018-07-31T13:23:15.055Z,31.70
2018-07-31T13:25:46.794Z,31.80
2018-07-31T13:28:17.974Z,31.90
2018-07-31T13:30:48.946Z,31.70
2018-07-31T13:33:19.207Z,31.70
2018-07-31T13:35:50.155Z,31.60
2018-07-31T13:38:19.930Z,31.70
2018-07-31T13:40:51.399Z,31.70
2018-07-31T13:43:21.974Z,31.80
2018-07-31T13:45:53.609Z,31.80
2018-07-31T13:48:25.235Z,31.70
2018-07-31T13:50:57.152Z,31.70
2018-07-31T13:53:28.059Z,31.60
2018-07-31T13:55:58.392Z,31.60
2018-07-31T13:58:27.387Z,31.60
2018-07-31T14:00:56.191Z,31.70
2018-07-31T14:03:27.839Z,31.80
2018-07-31T14:05:57.187Z,31.70
2018-07-31T14:08:26.633Z,31.50
2018-07-31T14:11:04.276Z,31.40
2018-07-31T14:13:34.808Z,31.40
2018-07-31T14:16:05.191Z,31.40
2018-07-31T14:18:36.217Z,31.30
2018-07-31T14:21:06.098Z,31.30
2018-07-31T14:23:36.278Z,31.10
2018-07-31T14:26:05.969Z,31.00
2018-07-31T14:28:36.195Z,30.90
2018-07-31T14:34:16.045Z,30.80
2018-07-31T14:36:46.152Z,30.70
2018-07-31T14:39:16.454Z,30.60
2018-07-31T14:41:45.767Z,30.60
2018-07-31T14:44:15.759Z,30.60
2018-07-31T14:46:45.372Z,30.60
2018-07-31T14:49:15.067Z,30.60
2018-07-31T14:51:44.940Z,30.60
2018-07-31T14:54:14.791Z,30.60
2018-07-31T14:56:44.387Z,30.60
2018-07-31T14:59:14.979Z,30.60
2018-07-31T15:01:45.518Z,30.60
2018-07-31T15:04:15.080Z,30.50
2018-07-31T15:06:45.709Z,30.50
2018-07-31T15:09:15.397Z,30.50
2018-07-31T15:11:45.685Z,30.50
2018-07-31T15:14:15.356Z,30.40
2018-07-31T15:16:45.240Z,30.40
2018-07-31T15:19:15.023Z,30.40
2018-07-31T15:21:46.215Z,30.30
2018-07-31T15:24:16.778Z,30.30
2018-07-31T15:26:46.343Z,30.30
2018-07-31T15:29:17.667Z,30.30
2018-07-31T15:31:48.807Z,30.30
2018-07-31T15:37:10.977Z,30.30
2018-07-31T15:39:40.975Z,30.20
2018-07-31T15:42:11.144Z,30.10
2018-07-31T15:44:40.970Z,30.20
2018-07-31T15:47:11.113Z,30.10
2018-07-31T15:52:12.089Z,30.20
2018-07-31T15:54:48.116Z,30.20
2018-07-31T16:06:17.343Z,30.10
2018-07-31T16:08:47.860Z,30.10
2018-07-31T16:11:18.352Z,30.20
2018-07-31T16:13:47.795Z,30.20
2018-07-31T16:16:20.914Z,30.20
2018-07-31T16:18:50.522Z,30.70
2018-07-31T16:21:21.240Z,31.70
2018-07-31T16:23:51.327Z,32.90
2018-07-31T16:26:20.827Z,33.80
2018-07-31T16:28:50.312Z,34.70
2018-07-31T16:31:20.451Z,35.10
2018-07-31T16:33:50.078Z,35.40
2018-07-31T16:36:22.632Z,35.50
2018-07-31T16:38:54.152Z,35.70
2018-07-31T16:41:25.866Z,35.40
2018-07-31T16:43:57.069Z,35.30
2018-07-31T16:48:57.724Z,35.80
2018-07-31T16:51:29.220Z,35.90
2018-07-31T16:54:03.058Z,35.50
2018-07-31T16:56:32.834Z,35.10
2018-07-31T16:59:03.875Z,35.20
2018-07-31T17:01:33.892Z,35.10
2018-07-31T17:07:01.067Z,35.00
2018-07-31T17:09:31.031Z,35.10
2018-07-31T17:12:00.926Z,35.00
2018-07-31T17:14:32.089Z,35.10
2018-07-31T17:17:01.623Z,35.00
2018-07-31T17:19:31.299Z,34.90
2018-07-31T17:22:03.035Z,34.60
2018-07-31T17:24:34.011Z,34.30
2018-07-31T17:27:03.695Z,34.00
2018-07-31T17:29:32.726Z,33.90
2018-07-31T17:32:03.047Z,33.80
2018-07-31T17:34:33.931Z,33.70
2018-07-31T17:37:03.292Z,33.60
2018-07-31T17:39:32.563Z,33.60
2018-07-31T17:42:02.057Z,33.50
2018-07-31T17:44:31.825Z,33.30
2018-07-31T17:47:01.003Z,33.20
2018-07-31T17:49:30.972Z,32.80
2018-07-31T17:52:02.552Z,32.50
2018-07-31T17:54:33.227Z,32.20
2018-07-31T17:57:03.107Z,32.00
2018-07-31T17:59:32.767Z,31.60
2018-07-31T18:02:01.863Z,31.00
2018-07-31T18:04:31.111Z,30.40
2018-07-31T18:07:01.608Z,29.90
2018-07-31T18:14:44.069Z,28.20
2018-07-31T18:17:14.826Z,27.90
2018-07-31T18:19:45.907Z,27.60
2018-07-31T18:22:16.581Z,27.40
2018-07-31T18:27:17.796Z,27.00
2018-07-31T18:32:19.848Z,26.70
2018-07-31T18:34:50.712Z,26.60
2018-07-31T18:39:48.655Z,26.40
2018-07-31T18:42:18.329Z,26.40
2018-07-31T18:44:48.360Z,26.20
2018-07-31T20:22:56.141Z,23.70
2018-07-31T20:55:03.627Z,23.20
2018-07-31T20:58:08.376Z,23.10
2018-07-31T21:01:06.706Z,23.10
2018-07-31T22:10:38.992Z,22.50
2018-07-31T22:13:29.384Z,22.40
2018-07-31T22:16:12.049Z,22.40
2018-07-31T22:19:03.006Z,22.30
2018-07-31T22:21:49.020Z,22.40
2018-07-31T22:24:41.077Z,22.30
2018-07-31T22:30:56.722Z,22.30
2018-07-31T22:33:39.770Z,22.30
2018-07-31T22:36:25.731Z,22.20
2018-07-31T22:39:09.265Z,22.20
2018-07-31T23:24:28.388Z,22.00
2018-07-31T23:27:10.266Z,22.00
2018-07-31T23:29:49.711Z,21.90
2018-07-31T23:32:28.668Z,21.90
2018-07-31T23:55:20.223Z,21.80
2018-07-31T23:57:55.026Z,21.80
